Wyandanch, New York
Current Conditions -  °F | °C
As of 8:19 AM on Thursday 23 Oct 2014 (Local Time) from KFRG Reporting Station
Light Rain Light Rain  
Wind Chill: 51°   Ceiling: 4700
Heat Index: 51°   Visibility: 5mi
Dew Point: 47°   Wind: 12mph
Humidity: 86%   Direction: 360°N
Pressure: 29.66"   Gusts: 21mph
Location:  40.76°N, 73.36°W
Report Text: KFRG 231219Z 36010G18KT 5SM -RA BR FEW012 BKN047 OVC060 11/08 A2966 RMK AO2 P0002 T01060083
Loading
Personal Weather Stations






























Interactive Weather Map
Tropical Storm Tracking
New forecast layout! Learn more

10-Day Weather Forecast

Advertisements
Track Severe Weather on mobile